Time;durP1;ratioP1;P1;durP2;ratioP2;P2;SDS_P1;SDS_P2;PMS_P1;PMS_P2;Temp;Humidity;BMP_temperature;BMP_pressure;BME280_temperature;BME280_humidity;BME280_pressure;Samples;Min_cycle;Max_cycle;Signal;HPM_P1;HPM_P2
2021/12/08 00:02:01;;;;;;;7.95;4.38;;;;;;;3.54;100.00;99233.91;4753533;30;20045;-80
2021/12/08 00:04:26;;;;;;;11.82;4.60;;;;;;;3.56;100.00;99238.91;4753346;30;20059;-77
2021/12/08 00:06:52;;;;;;;9.90;4.35;;;;;;;3.42;100.00;99212.47;4753439;30;20036;-77
2021/12/08 00:09:29;;;;;;;13.07;4.30;;;;;;;3.31;100.00;99181.66;4753271;30;20043;-81
2021/12/08 00:14:39;;;;;;;10.07;4.65;;;;;;;3.48;100.00;99201.09;4753792;30;20120;-77
2021/12/08 00:17:05;;;;;;;10.68;4.72;;;;;;;3.62;100.00;99218.13;4753341;30;20468;-82
2021/12/08 00:19:31;;;;;;;10.02;4.30;;;;;;;3.65;100.00;99212.84;4753149;30;20381;-78
2021/12/08 00:21:56;;;;;;;10.68;4.88;;;;;;;3.46;100.00;99177.41;4753121;30;20056;-82
2021/12/08 00:24:22;;;;;;;9.40;4.50;;;;;;;3.56;100.00;99192.97;4753135;30;20067;-80
2021/12/08 00:26:47;;;;;;;11.70;4.25;;;;;;;3.44;100.00;99167.28;4753036;30;20036;-76
2021/12/08 00:29:12;;;;;;;10.88;4.05;;;;;;;3.56;100.00;99191.25;4753233;30;20534;-77
2021/12/08 00:31:40;;;;;;;8.80;5.13;;;;;;;3.77;100.00;99221.50;4753127;30;20055;-77
2021/12/08 00:34:05;;;;;;;7.03;4.13;;;;;;;3.80;100.00;99224.66;4752963;30;20032;-80
2021/12/08 00:36:40;;;;;;;6.85;3.72;;;;;;;3.82;100.00;99234.78;4752856;30;20055;-82
2021/12/08 00:39:06;;;;;;;6.70;4.07;;;;;;;3.67;100.00;99206.72;4751862;30;20438;-82
2021/12/08 00:41:31;;;;;;;7.00;3.80;;;;;;;3.84;100.00;99221.03;4752953;30;20044;-76
2021/12/08 00:43:56;;;;;;;9.40;3.90;;;;;;;3.86;100.00;99216.66;4752828;30;20036;-82
2021/12/08 00:46:22;;;;;;;8.60;3.92;;;;;;;3.84;100.00;99192.13;4752719;30;20388;-77
2021/12/08 00:48:49;;;;;;;10.80;3.80;;;;;;;4.03;100.00;99210.47;4752884;30;20047;-82
2021/12/08 00:51:16;;;;;;;7.28;4.05;;;;;;;3.93;100.00;99183.88;4752704;30;20162;-82
2021/12/08 00:53:42;;;;;;;7.68;3.42;;;;;;;4.12;100.00;99216.75;4752800;30;20032;-82
2021/12/08 00:56:07;;;;;;;7.75;3.80;;;;;;;4.12;100.00;99211.66;4752478;30;20032;-80
2021/12/08 00:58:32;;;;;;;9.60;3.47;;;;;;;4.15;100.00;99212.31;4752669;30;20040;-81
2021/12/08 01:00:58;;;;;;;8.32;3.40;;;;;;;4.15;100.00;99209.75;4752315;30;20053;-77
2021/12/08 01:03:23;;;;;;;5.88;2.92;;;;;;;4.34;100.00;99236.69;4752691;30;20036;-78
2021/12/08 01:05:54;;;;;;;6.85;3.20;;;;;;;4.37;100.00;99244.16;4752511;30;20043;-77
2021/12/08 01:08:24;;;;;;;5.47;2.92;;;;;;;4.42;100.00;99239.56;4752552;30;20032;-82
2021/12/08 01:10:52;;;;;;;7.32;3.05;;;;;;;4.45;100.00;99235.09;4752398;30;20032;-77
2021/12/08 01:13:18;;;;;;;6.63;3.15;;;;;;;4.51;100.00;99254.31;4752250;30;20038;-77
2021/12/08 01:15:48;;;;;;;6.95;3.47;;;;;;;4.55;100.00;99248.13;4752516;30;20066;-79
2021/12/08 01:18:15;;;;;;;4.88;2.80;;;;;;;4.58;100.00;99248.75;4752628;30;20082;-80
2021/12/08 01:20:41;;;;;;;8.50;2.80;;;;;;;4.37;100.00;99208.38;4752375;30;20036;-81
2021/12/08 01:23:06;;;;;;;5.75;2.92;;;;;;;4.65;100.00;99251.75;4736882;30;20035;-79
2021/12/08 01:25:32;;;;;;;5.90;3.15;;;;;;;4.38;100.00;99207.47;4752223;30;20109;-78
2021/12/08 01:27:57;;;;;;;6.38;2.80;;;;;;;4.65;100.00;99244.06;4752003;30;20036;-81
2021/12/08 01:30:23;;;;;;;6.10;2.50;;;;;;;4.48;100.00;99219.56;4752221;30;20036;-80
2021/12/08 01:32:48;;;;;;;7.10;2.70;;;;;;;4.71;100.00;99259.00;4752359;30;20032;-80
2021/12/08 01:35:13;;;;;;;6.15;2.78;;;;;;;4.70;100.00;99254.81;4752385;30;20039;-77
2021/12/08 01:37:40;;;;;;;7.95;2.83;;;;;;;4.74;100.00;99258.81;4752167;30;20047;-79
2021/12/08 01:40:09;;;;;;;7.00;2.80;;;;;;;4.77;100.00;99261.19;4752222;30;20021;-80
2021/12/08 01:42:43;;;;;;;8.65;2.63;;;;;;;4.57;100.00;99230.94;4751772;30;20051;-77
2021/12/08 01:47:55;;;;;;;4.90;2.47;;;;;;;4.82;100.00;99263.44;4752029;30;20043;-81
2021/12/08 01:50:20;;;;;;;6.45;2.58;;;;;;;4.84;100.00;99274.41;4751967;30;20036;-77
2021/12/08 01:52:45;;;;;;;8.10;3.42;;;;;;;4.83;100.00;99275.31;4751982;30;20032;-78
2021/12/08 01:55:11;;;;;;;6.95;2.80;;;;;;;4.73;100.00;99272.53;4752213;30;20040;-77
2021/12/08 01:57:37;;;;;;;7.45;2.97;;;;;;;4.73;100.00;99264.03;4751773;30;20049;-78
2021/12/08 02:00:10;;;;;;;7.80;3.08;;;;;;;4.81;100.00;99277.94;4751984;30;20062;-78
2021/12/08 02:02:35;;;;;;;8.13;2.80;;;;;;;4.79;100.00;99271.31;4751782;30;20056;-80
2021/12/08 02:05:01;;;;;;;7.53;2.85;;;;;;;4.82;100.00;99282.19;4751962;30;20546;-81
2021/12/08 02:07:26;;;;;;;9.48;2.95;;;;;;;4.82;100.00;99286.47;4752002;30;20111;-77
2021/12/08 02:09:52;;;;;;;6.43;2.88;;;;;;;4.84;100.00;99289.75;4751806;30;20032;-77
2021/12/08 02:12:17;;;;;;;8.25;2.97;;;;;;;4.85;100.00;99288.81;4751847;30;20036;-81
2021/12/08 02:14:43;;;;;;;11.77;3.30;;;;;;;4.85;100.00;99292.19;4752022;30;20408;-77
2021/12/08 02:17:10;;;;;;;5.88;2.80;;;;;;;4.53;100.00;99247.41;4751910;30;20043;-81
2021/12/08 02:19:37;;;;;;;9.15;3.00;;;;;;;4.88;100.00;99296.28;4751761;30;20056;-81
2021/12/08 02:22:03;;;;;;;6.55;3.15;;;;;;;4.89;100.00;99292.81;4751915;30;20397;-80
2021/12/08 02:24:28;;;;;;;9.52;3.38;;;;;;;4.88;100.00;99304.78;4753608;30;20119;-79
2021/12/08 02:26:55;;;;;;;9.38;2.92;;;;;;;4.88;100.00;99306.53;4755079;30;20036;-78
2021/12/08 02:29:32;;;;;;;8.05;2.83;;;;;;;4.61;100.00;99283.50;4755262;30;20038;-77
2021/12/08 02:32:05;;;;;;;8.65;2.90;;;;;;;4.78;100.00;99318.25;4755287;30;20397;-77
2021/12/08 02:48:22;;;;;;;7.82;2.70;;;;;;;4.76;100.00;99330.31;4735154;30;20139;-77
2021/12/08 02:50:47;;;;;;;10.50;2.63;;;;;;;4.80;100.00;99332.56;4735280;30;20576;-78
2021/12/08 02:53:15;;;;;;;9.25;3.03;;;;;;;4.82;100.00;99341.00;4735032;30;20052;-81
2021/12/08 02:55:42;;;;;;;6.47;2.72;;;;;;;4.52;100.00;99291.75;4735365;30;20040;-80
2021/12/08 02:58:08;;;;;;;7.82;2.97;;;;;;;4.48;100.00;99275.81;4735025;30;20102;-77
2021/12/08 03:00:39;;;;;;;9.63;2.83;;;;;;;4.85;100.00;99328.00;4734977;30;20422;-77
2021/12/08 03:03:05;;;;;;;10.80;2.50;;;;;;;4.72;100.00;99298.16;4735200;30;20119;-77
2021/12/08 03:05:31;;;;;;;10.48;2.70;;;;;;;4.95;99.72;99327.41;4735046;30;20163;-77
2021/12/08 03:07:58;;;;;;;6.55;2.35;;;;;;;4.97;99.58;99331.50;4734704;30;20094;-77
2021/12/08 03:10:30;;;;;;;7.25;2.90;;;;;;;4.88;99.44;99314.19;4734984;30;20434;-81
2021/12/08 03:12:55;;;;;;;5.07;2.20;;;;;;;4.99;99.36;99333.97;4734939;30;20390;-78
2021/12/08 03:15:21;;;;;;;5.10;2.15;;;;;;;4.98;99.52;99324.66;4734815;30;20036;-78
2021/12/08 03:17:46;;;;;;;11.35;2.83;;;;;;;4.82;99.53;99305.19;4734908;30;20131;-79
2021/12/08 03:20:16;;;;;;;7.88;2.45;;;;;;;4.87;99.17;99315.94;4734843;30;20499;-77
2021/12/08 03:22:46;;;;;;;8.10;2.20;;;;;;;5.01;99.07;99348.28;4734728;30;20079;-80
2021/12/08 03:25:15;;;;;;;6.85;2.30;;;;;;;4.83;99.23;99321.34;4748307;30;20044;-79
2021/12/08 03:28:03;;;;;;;5.50;2.45;;;;;;;4.76;99.16;99315.78;4754287;30;20028;-77
2021/12/08 03:30:32;;;;;;;7.28;2.40;;;;;;;4.97;98.90;99351.16;4754267;30;20036;-79
2021/12/08 03:32:58;;;;;;;7.65;2.97;;;;;;;5.03;98.37;99363.56;4754190;30;20032;-77
2021/12/08 03:35:25;;;;;;;8.07;2.30;;;;;;;5.05;98.15;99367.66;4753926;30;20032;-78
2021/12/08 03:37:51;;;;;;;7.10;2.33;;;;;;;5.05;98.31;99362.56;4754181;30;20032;-77
2021/12/08 03:40:21;;;;;;;8.85;3.05;;;;;;;5.02;97.90;99356.81;4754285;30;20032;-76
2021/12/08 03:42:49;;;;;;;7.70;2.33;;;;;;;4.93;97.86;99354.84;4753980;30;20070;-80
2021/12/08 03:45:26;;;;;;;8.30;2.30;;;;;;;4.69;97.39;99337.53;4754238;30;20032;-77
2021/12/08 03:47:59;;;;;;;10.90;2.65;;;;;;;4.78;97.03;99362.53;4753706;30;20036;-78
2021/12/08 03:50:26;;;;;;;9.55;2.40;;;;;;;4.53;97.23;99324.09;4753904;30;20035;-77
2021/12/08 03:52:51;;;;;;;8.15;2.25;;;;;;;4.77;96.82;99363.47;4753649;30;20032;-77
2021/12/08 03:55:16;;;;;;;7.22;2.60;;;;;;;4.73;96.40;99361.22;4753970;30;20097;-78
2021/12/08 03:57:43;;;;;;;9.45;2.20;;;;;;;4.73;96.35;99367.13;4753743;30;20115;-78
2021/12/08 04:00:16;;;;;;;9.25;2.40;;;;;;;4.65;95.56;99371.09;4753797;30;20450;-76
2021/12/08 04:02:41;;;;;;;8.98;2.35;;;;;;;4.19;95.40;99318.47;4753578;30;20044;-79
2021/12/08 04:05:08;;;;;;;8.50;2.40;;;;;;;4.42;95.54;99360.50;4753819;30;20148;-78
2021/12/08 04:07:33;;;;;;;6.97;2.35;;;;;;;4.35;95.61;99366.94;4753849;30;20470;-76
2021/12/08 04:09:59;;;;;;;8.18;2.40;;;;;;;4.30;95.40;99377.41;4753553;30;20048;-76
2021/12/08 04:12:24;;;;;;;7.20;2.17;;;;;;;4.24;95.24;99369.31;4753494;30;20389;-76
2021/12/08 04:15:00;;;;;;;7.55;2.28;;;;;;;4.18;94.82;99369.69;4752214;30;20048;-80
2021/12/08 04:17:31;;;;;;;7.53;1.95;;;;;;;4.14;94.31;99370.78;4753408;30;20035;-76
2021/12/08 04:19:59;;;;;;;8.77;2.20;;;;;;;4.08;94.68;99376.25;4753486;30;20032;-77
2021/12/08 04:22:31;;;;;;;6.88;2.15;;;;;;;3.97;95.22;99376.88;4753473;30;20400;-77
2021/12/08 04:24:59;;;;;;;8.95;2.30;;;;;;;3.94;95.02;99384.72;4753247;30;20513;-79
2021/12/08 04:27:29;;;;;;;6.85;1.90;;;;;;;3.90;94.93;99391.72;4753135;30;20047;-77
2021/12/08 04:29:55;;;;;;;8.75;1.92;;;;;;;3.68;94.82;99358.16;4752985;30;20035;-77
2021/12/08 04:32:24;;;;;;;8.68;2.20;;;;;;;3.31;95.57;99313.50;4737470;30;20040;-77
2021/12/08 04:34:51;;;;;;;8.80;2.45;;;;;;;3.71;95.81;99380.94;4753212;30;20478;-76
2021/12/08 04:37:25;;;;;;;10.93;2.60;;;;;;;3.31;96.27;99337.28;4752905;30;20131;-76
2021/12/08 04:42:35;;;;;;;6.68;1.90;;;;;;;3.65;96.36;99394.09;4752858;30;20051;-77
2021/12/08 04:45:08;;;;;;;9.25;2.50;;;;;;;3.63;96.92;99398.44;4752929;30;20032;-80
2021/12/08 04:47:37;;;;;;;7.63;2.10;;;;;;;3.55;96.99;99383.56;4752159;30;20082;-77
2021/12/08 04:53:02;;;;;;;9.38;2.00;;;;;;;3.58;97.07;99378.28;4752837;30;20039;-77
2021/12/08 05:08:41;;;;;;;12.40;2.28;;;;;;;3.50;95.23;99398.31;4732917;30;20064;-77
2021/12/08 05:11:17;;;;;;;9.10;1.80;;;;;;;3.44;94.97;99386.75;4733048;30;20032;-81
2021/12/08 05:13:46;;;;;;;7.10;1.65;;;;;;;3.64;94.93;99426.44;4732957;30;20585;-80
2021/12/08 05:16:12;;;;;;;9.43;1.80;;;;;;;3.62;95.04;99424.88;4732904;30;20059;-78
2021/12/08 05:18:41;;;;;;;7.90;2.25;;;;;;;3.51;94.34;99412.72;4733031;30;20036;-76
2021/12/08 05:21:27;;;;;;;7.65;1.95;;;;;;;3.62;94.53;99419.75;4718232;30;20064;-77
2021/12/08 05:23:57;;;;;;;8.20;1.88;;;;;;;3.38;93.97;99381.16;4732328;30;20598;-80
2021/12/08 05:26:43;;;;;;;7.95;1.83;;;;;;;3.11;94.41;99338.41;4732748;30;20167;-79
2021/12/08 05:29:32;;;;;;;9.52;1.80;;;;;;;3.34;93.61;99364.34;4732514;30;20057;-78
2021/12/08 05:31:58;;;;;;;7.72;2.13;;;;;;;3.71;93.93;99414.13;4732699;30;20040;-80
2021/12/08 05:34:26;;;;;;;7.05;1.90;;;;;;;3.70;93.25;99417.59;4735081;30;20146;-76
2021/12/08 05:36:52;;;;;;;14.85;2.45;;;;;;;3.68;93.51;99422.78;4752139;30;20028;-77
2021/12/08 05:39:21;;;;;;;8.18;2.63;;;;;;;3.64;93.26;99423.06;4750991;30;20428;-77
2021/12/08 05:41:52;;;;;;;11.15;1.90;;;;;;;3.07;92.89;99349.72;4752434;30;20173;-79
2021/12/08 05:44:18;;;;;;;12.10;2.40;;;;;;;3.28;93.58;99385.13;4752019;30;20032;-77
2021/12/08 05:46:47;;;;;;;8.52;2.17;;;;;;;3.54;93.24;99427.88;4752396;30;20620;-78
2021/12/08 05:49:15;;;;;;;12.23;2.25;;;;;;;3.51;93.53;99433.13;4752548;30;20040;-82
2021/12/08 05:51:43;;;;;;;13.18;1.98;;;;;;;3.47;93.14;99443.63;4751975;30;20082;-81
2021/12/08 05:54:14;;;;;;;7.20;1.70;;;;;;;3.39;94.09;99446.59;4751979;30;20537;-80
2021/12/08 05:56:41;;;;;;;;;;;;;;;3.35;94.22;99442.56;4752520;30;20397;-82
2021/12/08 05:59:08;;;;;;;9.38;1.73;;;;;;;3.36;93.73;99444.22;4751907;30;19918;-79
2021/12/08 06:01:44;;;;;;;11.27;2.10;;;;;;;3.36;94.11;99439.94;4751839;30;20069;-82
2021/12/08 06:04:11;;;;;;;9.98;1.90;;;;;;;3.23;93.87;99427.91;4751962;30;20086;-81
2021/12/08 06:06:37;;;;;;;9.38;1.60;;;;;;;3.15;93.93;99425.81;4751905;30;20167;-81
2021/12/08 06:09:07;;;;;;;11.27;1.70;;;;;;;3.24;94.67;99457.63;4751853;30;20032;-81
2021/12/08 06:11:33;;;;;;;11.27;2.50;;;;;;;3.28;94.25;99466.78;4751925;30;20390;-81
2021/12/08 06:14:00;;;;;;;13.73;1.75;;;;;;;3.33;94.34;99472.44;4751741;30;20043;-81
2021/12/08 06:16:32;;;;;;;12.18;2.38;;;;;;;3.08;94.11;99421.94;4751882;30;20032;-81
2021/12/08 06:18:57;;;;;;;;;;;;;;;3.33;94.60;99470.69;4752185;30;20358;-81
2021/12/08 06:21:26;;;;;;;9.18;2.33;;;;;;;2.93;93.82;99404.91;4751860;30;19925;-81
2021/12/08 06:23:53;;;;;;;12.73;2.35;;;;;;;3.32;94.01;99483.53;4751766;30;20488;-81
2021/12/08 06:26:22;;;;;;;9.50;2.10;;;;;;;3.30;93.66;99480.25;4751889;30;20174;-80
2021/12/08 06:28:47;;;;;;;9.88;2.55;;;;;;;3.31;93.86;99489.56;4751787;30;20028;-81
2021/12/08 06:31:15;;;;;;;9.68;2.45;;;;;;;3.30;94.08;99488.72;4751892;30;20392;-81
2021/12/08 06:33:40;;;;;;;8.80;2.08;;;;;;;3.20;93.97;99477.38;4751648;30;20512;-79
2021/12/08 06:36:23;;;;;;;11.32;2.90;;;;;;;3.25;93.91;99500.94;4751768;30;20060;-80
2021/12/08 06:38:50;;;;;;;11.63;2.25;;;;;;;3.07;93.97;99482.34;4751697;30;20036;-78
2021/12/08 06:41:26;;;;;;;10.20;2.17;;;;;;;3.39;93.65;99505.28;4751845;30;20036;-80
2021/12/08 06:44:00;;;;;;;10.52;1.85;;;;;;;3.44;92.84;99506.69;4751614;30;20120;-81
2021/12/08 06:46:26;;;;;;;13.50;2.35;;;;;;;3.39;92.45;99501.00;4751563;30;20028;-81
2021/12/08 06:48:56;;;;;;;14.07;2.17;;;;;;;3.33;93.17;99514.06;4751551;30;20049;-81
2021/12/08 06:51:27;;;;;;;13.80;2.33;;;;;;;3.26;92.96;99507.66;4751434;30;20036;-81
2021/12/08 06:53:57;;;;;;;12.10;2.75;;;;;;;3.01;93.00;99479.28;4751626;30;20043;-81
2021/12/08 06:56:33;;;;;;;9.50;2.30;;;;;;;2.89;92.54;99475.66;4751460;30;20039;-80
2021/12/08 06:59:05;;;;;;;12.32;2.25;;;;;;;3.11;93.12;99505.94;4751276;30;20032;-81
2021/12/08 07:01:48;;;;;;;10.50;2.22;;;;;;;2.67;93.42;99442.00;4751335;30;20048;-79
2021/12/08 07:04:34;;;;;;;9.90;2.80;;;;;;;2.97;92.98;99509.22;4735903;30;20543;-80
2021/12/08 07:07:16;;;;;;;10.77;2.22;;;;;;;2.77;93.59;99478.84;4751580;30;20133;-76
2021/12/08 07:09:51;;;;;;;13.90;2.20;;;;;;;2.90;93.79;99515.53;4752070;30;20386;-80
2021/12/08 07:12:16;;;;;;;12.55;2.17;;;;;;;2.87;93.60;99521.63;4754652;30;20044;-78
2021/12/08 07:14:47;;;;;;;10.93;2.10;;;;;;;2.86;93.60;99524.25;4754430;30;20039;-81
2021/12/08 07:17:18;;;;;;;13.10;2.40;;;;;;;2.84;93.55;99531.97;4754498;30;20435;-81
2021/12/08 07:19:48;;;;;;;13.32;2.88;;;;;;;2.84;93.33;99529.41;4754349;30;20028;-77
2021/12/08 07:22:33;;;;;;;11.18;2.40;;;;;;;2.73;93.86;99529.16;4754339;30;20124;-79
2021/12/08 07:25:03;;;;;;;14.48;2.25;;;;;;;2.62;94.10;99528.88;4754341;30;20093;-77
2021/12/08 07:27:33;;;;;;;11.32;2.17;;;;;;;2.76;94.16;99551.13;4754165;30;20036;-82
2021/12/08 07:30:05;;;;;;;11.30;2.17;;;;;;;2.39;94.11;99502.03;4754110;30;20089;-80
2021/12/08 07:32:36;;;;;;;10.30;2.28;;;;;;;2.73;94.37;99569.94;4753885;30;20089;-76
2021/12/08 07:35:10;;;;;;;9.07;2.03;;;;;;;2.71;94.44;99563.28;4754079;30;20032;-75
2021/12/08 07:37:36;;;;;;;8.23;1.95;;;;;;;2.69;94.03;99570.19;4754207;30;20097;-76
2021/12/08 07:40:10;;;;;;;8.63;1.85;;;;;;;2.60;94.41;99571.47;4754093;30;20032;-77
2021/12/08 07:42:52;;;;;;;9.25;1.88;;;;;;;2.72;94.94;99591.22;4754027;30;20111;-77
2021/12/08 07:45:23;;;;;;;12.80;2.17;;;;;;;2.68;94.42;99584.66;4759315;30;20031;-76
2021/12/08 07:47:50;;;;;;;9.90;2.00;;;;;;;2.79;94.44;99592.59;4771883;30;20030;-81
2021/12/08 07:50:21;;;;;;;10.88;2.72;;;;;;;2.84;93.68;99599.97;4771768;30;20054;-81
2021/12/08 07:52:49;;;;;;;11.82;1.95;;;;;;;2.86;93.28;99603.31;4771819;30;20588;-77
2021/12/08 07:55:23;;;;;;;9.38;2.22;;;;;;;2.83;93.30;99572.84;4771553;30;20418;-81
2021/12/08 07:57:50;;;;;;;13.63;2.45;;;;;;;2.20;93.34;99470.75;4771434;30;20038;-77
2021/12/08 08:00:22;;;;;;;10.18;3.33;;;;;;;2.87;93.61;99595.56;4771516;30;20035;-81
2021/12/08 08:02:49;;;;;;;12.18;2.42;;;;;;;2.72;93.23;99568.28;4771210;30;20492;-75
2021/12/08 08:05:17;;;;;;;11.05;2.15;;;;;;;2.96;93.26;99584.06;4771481;30;20036;-75
2021/12/08 08:07:43;;;;;;;11.18;2.20;;;;;;;2.87;92.88;99552.22;4771313;30;20035;-76
2021/12/08 08:10:14;;;;;;;11.38;2.28;;;;;;;2.63;92.25;99504.22;4771295;30;20445;-76
2021/12/08 08:12:43;;;;;;;14.23;2.60;;;;;;;3.20;91.92;99574.31;4755268;30;20024;-77
2021/12/08 08:15:15;;;;;;;6.47;1.60;;;;;;;3.24;92.10;99582.63;4771061;30;20469;-79
2021/12/08 08:17:44;;;;;;;8.60;2.03;;;;;;;3.36;91.62;99585.38;4771013;30;20060;-76
2021/12/08 08:20:27;;;;;;;8.05;2.92;;;;;;;3.46;91.33;99593.34;4771007;30;20477;-77
2021/12/08 08:22:54;;;;;;;12.02;2.33;;;;;;;3.51;90.68;99600.75;4770126;30;20111;-80
2021/12/08 08:25:23;;;;;;;9.23;1.80;;;;;;;3.54;90.63;99593.78;4771139;30;20024;-77
2021/12/08 08:27:49;;;;;;;7.35;2.10;;;;;;;3.57;89.68;99596.16;4770972;30;20032;-76
2021/12/08 08:30:20;;;;;;;10.07;2.25;;;;;;;3.28;89.44;99544.13;4770569;30;20031;-77
2021/12/08 08:32:49;;;;;;;12.20;2.28;;;;;;;3.35;89.14;99570.16;4770750;30;20028;-83
2021/12/08 08:35:48;;;;;;;10.07;2.10;;;;;;;3.45;89.35;99599.38;4770686;30;20062;-81
2021/12/08 08:38:22;;;;;;;8.90;2.47;;;;;;;3.43;89.00;99594.31;4718492;30;20051;-79
2021/12/08 08:40:54;;;;;;;8.43;2.25;;;;;;;3.15;88.86;99546.50;4733321;30;20033;-77
2021/12/08 08:43:21;;;;;;;8.38;2.10;;;;;;;3.25;88.52;99558.78;4733115;30;20614;-82
2021/12/08 08:45:54;;;;;;;8.90;2.13;;;;;;;3.37;88.21;99575.97;4733048;30;20063;-82
2021/12/08 08:48:27;;;;;;;7.63;2.33;;;;;;;3.37;88.98;99573.44;4733034;30;20048;-79
2021/12/08 08:51:07;;;;;;;10.88;2.45;;;;;;;3.36;88.55;99574.34;4732962;30;20117;-80
2021/12/08 08:53:35;;;;;;;9.75;2.35;;;;;;;3.23;88.00;99540.16;4718478;30;20026;-82
2021/12/08 08:56:06;;;;;;;8.55;2.60;;;;;;;3.19;88.31;99538.69;4733133;30;20060;-75
2021/12/08 08:58:34;;;;;;;13.70;2.78;;;;;;;2.85;88.73;99489.44;4718222;30;20040;-75
2021/12/08 09:01:01;;;;;;;13.85;2.40;;;;;;;3.36;88.37;99572.59;4732598;30;20716;-79
2021/12/08 09:03:32;;;;;;;13.18;2.40;;;;;;;3.36;88.43;99584.53;4733039;30;20167;-76
2021/12/08 09:06:03;;;;;;;13.85;2.67;;;;;;;3.35;88.92;99588.00;4733014;30;20080;-79
2021/12/08 09:08:31;;;;;;;9.63;2.80;;;;;;;3.36;88.56;99592.19;4732898;30;20186;-76
2021/12/08 09:11:06;;;;;;;8.88;2.50;;;;;;;3.36;88.63;99597.31;4732899;30;20036;-82
2021/12/08 09:13:39;;;;;;;5.82;2.35;;;;;;;3.31;88.98;99583.94;4732837;30;20060;-78
2021/12/08 09:16:09;;;;;;;12.27;2.53;;;;;;;3.35;88.83;99586.28;4751207;30;20048;-77
2021/12/08 09:18:46;;;;;;;9.32;2.40;;;;;;;3.41;89.03;99592.75;4752502;30;20061;-75
2021/12/08 09:21:18;;;;;;;11.73;3.05;;;;;;;3.24;88.17;99568.13;4752373;30;20159;-83
2021/12/08 09:23:46;;;;;;;6.43;2.33;;;;;;;3.47;88.41;99602.66;4752298;30;20062;-83
2021/12/08 09:26:15;;;;;;;9.73;2.85;;;;;;;3.42;87.93;99600.34;4752028;30;20070;-83
2021/12/08 09:28:55;;;;;;;7.88;2.50;;;;;;;3.50;88.09;99616.97;4752226;30;20200;-82
2021/12/08 09:31:34;;;;;;;10.48;3.10;;;;;;;3.53;88.04;99614.25;4752115;30;20405;-78
2021/12/08 09:34:06;;;;;;;9.32;2.42;;;;;;;3.60;88.11;99625.78;4751922;30;20100;-75
2021/12/08 09:36:39;;;;;;;11.25;2.45;;;;;;;3.78;87.45;99635.03;4752044;30;20043;-80
2021/12/08 09:39:24;;;;;;;7.50;2.65;;;;;;;4.01;86.88;99636.31;4752107;30;20060;-79
2021/12/08 09:42:03;;;;;;;11.38;2.22;;;;;;;4.24;86.39;99638.44;4751888;30;20127;-79
2021/12/08 09:44:36;;;;;;;8.52;2.15;;;;;;;4.18;85.41;99600.44;4752062;30;20038;-78
2021/12/08 09:47:03;;;;;;;7.93;2.10;;;;;;;4.40;85.92;99605.16;4750865;30;20486;-82
2021/12/08 09:49:28;;;;;;;11.63;2.80;;;;;;;4.62;84.51;99622.63;4751769;30;20036;-80
2021/12/08 09:51:58;;;;;;;8.20;1.73;;;;;;;4.69;83.89;99623.13;4752078;30;20047;-82
2021/12/08 09:54:24;;;;;;;7.80;1.75;;;;;;;4.63;82.58;99624.31;4751851;30;20040;-80
2021/12/08 09:56:52;;;;;;;11.52;2.20;;;;;;;4.27;82.94;99576.91;4752006;30;20101;-81
2021/12/08 09:59:18;;;;;;;7.88;1.77;;;;;;;4.21;83.40;99577.25;4751889;30;20028;-80
2021/12/08 10:01:45;;;;;;;7.45;2.00;;;;;;;4.10;83.76;99573.66;4758002;30;20397;-75
2021/12/08 10:04:13;;;;;;;7.30;1.85;;;;;;;4.17;84.35;99591.13;4769519;30;20036;-81
2021/12/08 10:06:45;;;;;;;8.50;1.70;;;;;;;4.12;85.20;99589.72;4769485;30;20032;-81
2021/12/08 10:09:10;;;;;;;8.43;2.13;;;;;;;3.94;85.23;99566.06;4769402;30;20039;-80
2021/12/08 10:11:36;;;;;;;9.48;2.20;;;;;;;4.11;85.59;99596.56;4769542;30;20039;-79
2021/12/08 10:14:02;;;;;;;8.43;2.08;;;;;;;3.95;84.98;99572.81;4769509;30;20043;-78
2021/12/08 10:16:28;;;;;;;6.57;2.05;;;;;;;3.97;85.21;99578.66;4769271;30;20488;-79
2021/12/08 10:18:55;;;;;;;11.07;2.05;;;;;;;4.10;85.31;99581.34;4769312;30;20039;-83
2021/12/08 10:21:21;;;;;;;9.98;1.92;;;;;;;4.10;85.20;99584.72;4769218;30;20157;-82
2021/12/08 10:23:48;;;;;;;7.60;1.77;;;;;;;3.94;85.28;99559.22;4769334;30;20536;-83
2021/12/08 10:26:20;;;;;;;11.55;2.08;;;;;;;3.96;85.50;99570.16;4769384;30;20032;-82
2021/12/08 10:28:48;;;;;;;8.95;1.90;;;;;;;4.04;85.38;99572.31;4769242;30;20059;-84
2021/12/08 10:31:28;;;;;;;9.13;2.00;;;;;;;3.65;84.66;99507.22;4769231;30;20027;-81
2021/12/08 10:34:00;;;;;;;9.50;1.95;;;;;;;4.18;84.77;99577.44;4769261;30;20035;-75
2021/12/08 10:39:01;;;;;;;8.27;1.92;;;;;;;4.03;84.74;99532.31;4769250;30;20089;-80
2021/12/08 10:41:43;;;;;;;7.57;2.47;;;;;;;4.06;84.34;99537.28;4769133;30;20055;-74
2021/12/08 10:44:08;;;;;;;8.25;1.98;;;;;;;4.23;84.81;99560.13;4769165;30;20036;-81
2021/12/08 10:46:37;;;;;;;8.82;2.22;;;;;;;4.24;85.09;99563.50;4772315;30;20032;-79
2021/12/08 10:49:23;;;;;;;9.75;2.40;;;;;;;4.13;84.89;99536.03;4772279;30;20080;-79
2021/12/08 10:54:34;;;;;;;7.13;1.98;;;;;;;4.26;85.23;99571.91;4772736;30;20537;-75
2021/12/08 10:57:03;;;;;;;5.43;1.88;;;;;;;3.78;85.88;99497.13;4772440;30;20111;-79
2021/12/08 11:00:05;;;;;;;9.88;2.35;;;;;;;4.24;85.53;99578.84;4772408;30;20062;-82
2021/12/08 11:02:50;;;;;;;9.15;2.20;;;;;;;4.25;84.96;99576.19;4772054;30;20043;-80
2021/12/08 11:05:24;;;;;;;8.75;2.67;;;;;;;4.23;86.21;99595.91;4772004;30;20123;-76
2021/12/08 11:08:27;;;;;;;6.50;2.17;;;;;;;4.01;86.22;99555.41;4772115;30;20032;-80
2021/12/08 11:10:55;;;;;;;7.03;2.30;;;;;;;4.34;84.97;99597.03;4734612;30;20041;-81
2021/12/08 11:13:27;;;;;;;8.55;2.22;;;;;;;4.42;85.04;99599.94;4734696;30;20048;-77
2021/12/08 11:16:18;;;;;;;;;;;;;;;4.47;85.32;99601.34;4735114;30;20048;-79
2021/12/08 11:18:48;;;;;;;7.85;2.70;;;;;;;4.55;84.52;99616.25;4731042;30;19926;-84
2021/12/08 11:21:25;;;;;;;7.15;2.60;;;;;;;4.64;84.56;99631.06;4734559;30;20128;-82
2021/12/08 11:23:53;;;;;;;7.00;2.20;;;;;;;4.61;83.85;99611.59;4734659;30;20118;-78
2021/12/08 11:26:37;;;;;;;5.35;2.05;;;;;;;4.88;83.46;99633.91;4734683;30;20478;-78
2021/12/08 11:29:09;;;;;;;9.35;2.70;;;;;;;4.77;82.16;99587.69;4734313;30;20585;-71
2021/12/08 11:31:38;;;;;;;9.50;2.58;;;;;;;4.82;81.36;99568.63;4734369;30;20048;-77
2021/12/08 11:34:12;;;;;;;10.48;2.63;;;;;;;5.22;80.56;99622.53;4734292;30;20091;-80
2021/12/08 11:36:38;;;;;;;9.43;2.58;;;;;;;5.40;81.32;99636.75;4734371;30;20040;-77
2021/12/08 11:39:19;;;;;;;5.13;1.83;;;;;;;5.40;80.98;99633.38;4719342;30;20049;-80
2021/12/08 11:41:54;;;;;;;6.25;2.20;;;;;;;5.57;80.88;99643.41;4719151;30;20048;-76
2021/12/08 11:44:23;;;;;;;10.77;2.70;;;;;;;5.65;79.89;99635.25;4734436;30;20112;-80
2021/12/08 11:46:53;;;;;;;4.55;1.75;;;;;;;5.45;79.56;99618.56;4747969;30;20071;-75
2021/12/08 11:49:20;;;;;;;6.70;2.10;;;;;;;5.70;79.70;99657.13;4771746;30;20113;-74
2021/12/08 11:52:00;;;;;;;7.90;2.05;;;;;;;5.30;79.43;99592.16;4771439;30;20489;-78
2021/12/08 11:54:48;;;;;;;6.80;2.50;;;;;;;5.71;78.84;99665.63;4771403;30;20111;-80
2021/12/08 11:57:25;;;;;;;8.00;2.40;;;;;;;5.69;79.23;99665.69;4770987;30;20035;-74
2021/12/08 11:59:57;;;;;;;8.25;2.08;;;;;;;5.72;79.26;99667.28;4771294;30;20036;-79
2021/12/08 12:02:31;;;;;;;;;;;;;;;5.83;80.75;99664.88;4755337;30;20048;-77
2021/12/08 12:04:58;;;;;;;11.32;2.13;;;;;;;5.68;79.56;99643.56;4771364;30;19929;-80
2021/12/08 12:07:23;;;;;;;6.10;1.70;;;;;;;5.55;79.63;99621.38;4771267;30;20040;-77
2021/12/08 12:09:49;;;;;;;10.25;2.47;;;;;;;5.43;78.40;99603.28;4771164;30;20042;-80
2021/12/08 12:12:15;;;;;;;6.50;2.00;;;;;;;5.55;78.37;99631.63;4771101;30;20056;-73
2021/12/08 12:14:41;;;;;;;7.65;1.95;;;;;;;5.69;77.83;99670.00;4770998;30;20031;-75
2021/12/08 12:17:06;;;;;;;5.20;2.08;;;;;;;5.83;77.77;99692.22;4771039;30;20075;-76
2021/12/08 12:19:36;;;;;;;7.35;2.08;;;;;;;5.84;78.31;99696.44;4771126;30;20043;-80
2021/12/08 12:22:31;;;;;;;8.05;2.47;;;;;;;5.78;77.92;99687.38;4771067;30;20393;-72
2021/12/08 12:25:28;;;;;;;6.07;1.85;;;;;;;5.82;78.68;99698.28;4771147;30;20103;-75
2021/12/08 12:28:05;;;;;;;5.78;1.95;;;;;;;5.88;78.15;99714.06;4733656;30;20044;-80
2021/12/08 12:30:57;;;;;;;6.72;2.15;;;;;;;5.83;78.03;99712.72;4733535;30;20490;-77
2021/12/08 12:33:23;;;;;;;;;;;;;;;5.89;78.81;99715.72;4733668;30;20044;-79
2021/12/08 12:35:53;;;;;;;5.65;2.30;;;;;;;5.87;78.13;99724.41;4733210;30;19930;-78
2021/12/08 12:38:36;;;;;;;6.25;2.28;;;;;;;5.80;78.82;99715.44;4733099;30;20044;-79